createdAt,value
2019-02-06T00:01:05.478Z,18.73
2019-02-06T00:03:36.301Z,21.37
2019-02-06T00:06:09.003Z,20.23
2019-02-06T00:08:38.070Z,20.20
2019-02-06T00:11:07.278Z,26.43
2019-02-06T00:13:37.659Z,25.23
2019-02-06T00:16:08.857Z,18.80
2019-02-06T00:18:41.524Z,17.13
2019-02-06T00:21:12.509Z,25.77
2019-02-06T00:23:41.597Z,20.17
2019-02-06T00:26:12.112Z,19.30
2019-02-06T00:28:41.179Z,16.97
2019-02-06T00:31:12.118Z,26.63
2019-02-06T00:33:43.024Z,17.27
2019-02-06T00:36:14.090Z,21.00
2019-02-06T00:38:48.154Z,20.40
2019-02-06T00:41:18.436Z,26.27
2019-02-06T00:43:51.169Z,24.97
2019-02-06T00:46:21.400Z,19.07
2019-02-06T00:48:50.957Z,20.40
2019-02-06T00:51:20.312Z,21.23
2019-02-06T00:53:52.313Z,20.40
2019-02-06T00:56:21.429Z,19.00
2019-02-06T00:58:50.528Z,19.63
2019-02-06T01:01:19.688Z,20.20
2019-02-06T01:03:52.903Z,18.10
2019-02-06T01:06:22.088Z,20.53
2019-02-06T01:08:51.735Z,18.63
2019-02-06T01:11:20.829Z,19.70
2019-02-06T01:13:49.985Z,17.13
2019-02-06T01:16:20.726Z,22.80
2019-02-06T01:18:53.039Z,20.57
2019-02-06T01:21:22.109Z,19.03
2019-02-06T01:23:51.673Z,24.27
2019-02-06T01:26:23.117Z,18.20
2019-02-06T01:28:52.222Z,22.07
2019-02-06T01:31:31.358Z,25.30
2019-02-06T01:34:00.767Z,18.10
2019-02-06T01:36:30.869Z,20.97
2019-02-06T01:39:07.547Z,24.37
2019-02-06T01:41:36.643Z,23.20
2019-02-06T01:44:07.032Z,18.70
2019-02-06T01:46:40.254Z,23.10
2019-02-06T01:49:12.788Z,22.40
2019-02-06T01:51:43.116Z,18.50
2019-02-06T01:54:13.286Z,23.03
2019-02-06T01:56:45.928Z,20.33
2019-02-06T01:59:16.493Z,15.07
2019-02-06T02:01:48.767Z,21.23
2019-02-06T02:04:19.113Z,15.97
2019-02-06T02:06:48.229Z,16.60
2019-02-06T02:09:20.663Z,19.10
2019-02-06T02:11:52.394Z,18.63
2019-02-06T02:14:21.525Z,21.73
2019-02-06T02:16:50.848Z,18.47
2019-02-06T02:19:19.947Z,25.33
2019-02-06T02:21:53.342Z,17.50
2019-02-06T02:24:26.795Z,20.27
2019-02-06T02:26:56.305Z,16.97
2019-02-06T02:29:25.765Z,17.83
2019-02-06T02:31:58.801Z,19.07
2019-02-06T02:34:31.497Z,23.00
2019-02-06T02:37:05.664Z,14.87
2019-02-06T02:39:37.936Z,13.20
2019-02-06T02:42:15.370Z,20.67
2019-02-06T02:44:53.912Z,19.40
2019-02-06T02:47:26.541Z,25.20
2019-02-06T02:50:06.115Z,18.77
2019-02-06T02:52:37.102Z,18.80
2019-02-06T02:55:11.882Z,20.40
2019-02-06T02:57:42.312Z,19.80
2019-02-06T03:00:22.270Z,22.93
2019-02-06T03:03:08.957Z,18.73
2019-02-06T03:05:39.016Z,17.23
2019-02-06T03:08:08.128Z,18.20
2019-02-06T03:10:43.636Z,17.97
2019-02-06T03:13:12.863Z,17.63
2019-02-06T03:15:41.995Z,16.83
2019-02-06T03:18:11.349Z,26.17
2019-02-06T03:20:42.184Z,22.67
2019-02-06T03:23:11.309Z,17.83
2019-02-06T03:25:46.100Z,15.47
2019-02-06T03:28:15.227Z,17.40
2019-02-06T03:30:44.316Z,17.70
2019-02-06T03:33:15.000Z,15.37
2019-02-06T03:35:47.349Z,17.77
2019-02-06T03:38:16.446Z,20.53
2019-02-06T03:40:45.967Z,19.30
2019-02-06T03:43:17.588Z,22.60
2019-02-06T03:45:46.829Z,17.53
2019-02-06T03:48:15.930Z,25.43
2019-02-06T03:50:45.071Z,25.97
2019-02-06T03:53:17.191Z,16.40
2019-02-06T03:55:49.847Z,21.47
2019-02-06T03:58:18.959Z,17.53
2019-02-06T04:00:49.693Z,20.90
2019-02-06T04:03:19.201Z,13.80
2019-02-06T04:05:48.311Z,17.83
2019-02-06T04:08:18.199Z,19.07
2019-02-06T04:10:47.298Z,15.07
2019-02-06T04:13:17.836Z,19.20
2019-02-06T04:15:54.721Z,15.87
2019-02-06T04:18:27.658Z,19.07
2019-02-06T04:21:00.381Z,16.50
2019-02-06T04:23:29.729Z,18.43
2019-02-06T04:25:58.883Z,23.13
2019-02-06T04:28:27.974Z,17.10
2019-02-06T04:30:58.188Z,14.60
2019-02-06T04:33:29.070Z,12.17
2019-02-06T04:35:58.585Z,16.73
2019-02-06T04:38:30.886Z,15.87
2019-02-06T04:40:59.978Z,21.13
2019-02-06T04:43:29.093Z,17.37
2019-02-06T04:45:59.973Z,16.77
2019-02-06T04:48:32.112Z,18.53
2019-02-06T04:53:52.554Z,14.83
2019-02-06T04:56:21.873Z,23.63
2019-02-06T04:58:53.979Z,21.57
2019-02-06T05:01:24.872Z,16.93
2019-02-06T05:03:54.588Z,17.93
2019-02-06T05:06:25.388Z,20.80
2019-02-06T05:08:59.549Z,20.33
2019-02-06T05:11:28.690Z,20.93
2019-02-06T05:13:58.225Z,18.40
2019-02-06T05:16:28.207Z,15.37
2019-02-06T05:18:58.982Z,23.80
2019-02-06T05:21:28.041Z,15.40
2019-02-06T05:23:58.238Z,16.57
2019-02-06T05:26:29.003Z,14.50
2019-02-06T05:28:58.096Z,20.30
2019-02-06T05:31:27.283Z,21.57
2019-02-06T05:33:56.712Z,23.07
2019-02-06T05:36:25.856Z,18.57
2019-02-06T05:38:58.320Z,11.67
2019-02-06T05:41:27.509Z,21.27
2019-02-06T05:43:56.906Z,15.07
2019-02-06T05:46:27.497Z,12.93
2019-02-06T05:49:01.334Z,15.90
2019-02-06T05:51:28.704Z,18.40
2019-02-06T05:54:01.871Z,18.80
2019-02-06T05:56:31.093Z,21.13
2019-02-06T05:59:00.245Z,14.67
2019-02-06T06:01:30.439Z,14.73
2019-02-06T06:04:01.923Z,16.60
2019-02-06T06:06:31.843Z,13.30
2019-02-06T06:09:05.553Z,19.03
2019-02-06T06:11:38.195Z,23.07
2019-02-06T06:14:07.772Z,16.27
2019-02-06T06:16:44.239Z,21.33
2019-02-06T06:19:14.663Z,18.50
2019-02-06T06:21:45.034Z,19.20
2019-02-06T06:24:19.355Z,15.50
2019-02-06T06:26:51.383Z,23.10
2019-02-06T06:29:26.899Z,13.90
2019-02-06T06:31:57.043Z,15.03
2019-02-06T06:34:29.216Z,19.63
2019-02-06T06:36:58.636Z,22.77
2019-02-06T06:39:36.261Z,19.50
2019-02-06T06:42:05.450Z,16.13
2019-02-06T06:44:34.827Z,20.17
2019-02-06T06:47:03.968Z,18.63
2019-02-06T06:49:36.887Z,20.03
2019-02-06T06:52:06.039Z,15.47
2019-02-06T06:54:38.570Z,17.70
2019-02-06T06:57:12.310Z,18.60
2019-02-06T06:59:43.569Z,16.33
2019-02-06T07:02:14.102Z,16.83
2019-02-06T07:04:48.506Z,22.53
2019-02-06T07:07:17.661Z,21.37
2019-02-06T07:09:48.390Z,17.40
2019-02-06T07:12:20.142Z,20.60
2019-02-06T07:14:52.682Z,16.60
2019-02-06T07:17:21.735Z,21.23
2019-02-06T07:19:51.001Z,21.83
2019-02-06T07:22:22.042Z,16.27
2019-02-06T07:24:51.516Z,17.00
2019-02-06T07:27:23.479Z,20.83
2019-02-06T07:29:57.669Z,25.13
2019-02-06T07:32:26.893Z,17.13
2019-02-06T07:34:57.095Z,15.03
2019-02-06T07:37:30.838Z,24.80
2019-02-06T07:39:59.993Z,12.63
2019-02-06T07:42:31.655Z,16.30
2019-02-06T07:45:09.604Z,16.60
2019-02-06T07:47:38.958Z,19.43
2019-02-06T07:50:12.100Z,15.00
2019-02-06T07:52:41.480Z,21.27
2019-02-06T07:55:11.222Z,18.30
2019-02-06T07:57:41.436Z,19.00
2019-02-06T08:00:13.401Z,17.43
2019-02-06T08:02:42.549Z,14.83
2019-02-06T08:05:14.689Z,17.93
2019-02-06T08:07:44.428Z,24.13
2019-02-06T08:10:19.830Z,19.83
2019-02-06T08:12:50.520Z,26.90
2019-02-06T08:15:24.196Z,26.77
2019-02-06T08:17:59.782Z,14.57
2019-02-06T08:20:32.954Z,18.07
2019-02-06T08:23:04.402Z,21.10
2019-02-06T08:25:36.469Z,18.27
2019-02-06T08:28:10.297Z,16.60
2019-02-06T08:30:49.821Z,14.60
2019-02-06T08:33:19.095Z,16.17
2019-02-06T08:35:48.485Z,15.07
2019-02-06T08:38:19.378Z,17.80
2019-02-06T08:40:50.979Z,14.80
2019-02-06T08:43:20.394Z,19.03
2019-02-06T08:45:57.311Z,19.43
2019-02-06T08:48:26.551Z,14.73
2019-02-06T08:50:56.872Z,14.43
2019-02-06T08:53:28.528Z,11.90
2019-02-06T08:55:59.157Z,13.13
2019-02-06T08:58:28.564Z,19.57
2019-02-06T09:00:57.670Z,14.27
2019-02-06T09:03:27.428Z,17.60
2019-02-06T09:05:56.645Z,19.33
2019-02-06T09:08:30.869Z,17.33
2019-02-06T09:10:59.975Z,17.57
2019-02-06T09:13:33.922Z,19.67
2019-02-06T09:16:03.044Z,11.93
2019-02-06T09:18:32.170Z,15.77
2019-02-06T09:21:01.669Z,17.33
2019-02-06T09:23:51.136Z,13.20
2019-02-06T09:26:23.315Z,13.47
2019-02-06T09:28:56.253Z,20.33
2019-02-06T09:31:28.796Z,16.73
2019-02-06T09:34:02.891Z,15.60
2019-02-06T09:36:40.028Z,15.90
2019-02-06T09:39:11.956Z,14.90
2019-02-06T09:41:44.188Z,13.67
2019-02-06T09:44:13.483Z,20.93
2019-02-06T09:46:42.716Z,14.63
2019-02-06T09:49:15.153Z,16.57
2019-02-06T09:51:45.783Z,15.43
2019-02-06T09:54:15.361Z,13.50
2019-02-06T09:56:45.219Z,13.80
2019-02-06T09:59:14.371Z,16.57
2019-02-06T10:01:44.725Z,15.10
2019-02-06T10:04:17.033Z,16.33
2019-02-06T10:06:49.220Z,10.50
2019-02-06T10:09:23.088Z,17.33
2019-02-06T10:11:52.314Z,17.80
2019-02-06T10:14:21.700Z,12.37
2019-02-06T10:16:51.106Z,13.53
2019-02-06T10:19:22.996Z,11.83
2019-02-06T10:21:54.040Z,14.17
2019-02-06T10:24:23.223Z,14.40
2019-02-06T10:26:54.283Z,15.03
2019-02-06T10:29:26.672Z,10.43
2019-02-06T10:31:59.084Z,27.63
2019-02-06T10:34:32.813Z,14.10
2019-02-06T10:37:13.277Z,9.73
2019-02-06T10:39:42.466Z,12.57
2019-02-06T10:42:13.918Z,12.30
2019-02-06T10:44:45.300Z,8.97
2019-02-06T10:47:14.412Z,11.47
2019-02-06T10:49:44.778Z,10.67
2019-02-06T10:52:13.940Z,12.07
2019-02-06T10:54:45.186Z,9.43
2019-02-06T10:57:19.051Z,10.30
2019-02-06T10:59:51.096Z,7.57
2019-02-06T11:02:22.152Z,6.90
2019-02-06T11:04:51.349Z,9.27
2019-02-06T11:07:27.331Z,8.00
2019-02-06T11:09:57.030Z,8.67
2019-02-06T11:12:26.358Z,7.07
2019-02-06T11:14:56.208Z,8.50
2019-02-06T11:17:26.657Z,6.70
2019-02-06T11:20:00.993Z,8.50
2019-02-06T11:22:32.030Z,7.13
2019-02-06T11:25:04.992Z,4.93
2019-02-06T11:27:36.632Z,6.10
2019-02-06T11:30:09.021Z,8.55
2019-02-06T11:32:38.883Z,7.93
2019-02-06T11:35:24.934Z,7.23
2019-02-06T11:37:56.036Z,7.00
2019-02-06T11:40:29.318Z,9.53
2019-02-06T11:42:59.004Z,8.40
2019-02-06T11:45:30.419Z,7.50
2019-02-06T11:48:01.947Z,7.00
2019-02-06T11:50:42.811Z,9.50
2019-02-06T11:53:26.443Z,7.97
2019-02-06T11:56:01.144Z,7.80
2019-02-06T11:58:38.273Z,5.87
2019-02-06T12:01:29.373Z,6.50
2019-02-06T12:04:00.049Z,5.83
2019-02-06T12:06:29.482Z,3.47
2019-02-06T12:09:00.376Z,5.87
2019-02-06T12:11:29.621Z,6.97
2019-02-06T12:14:02.949Z,4.93
2019-02-06T12:16:36.720Z,7.83
2019-02-06T12:19:07.679Z,4.93
2019-02-06T12:21:39.926Z,5.90
2019-02-06T12:24:10.857Z,5.83
2019-02-06T12:26:40.312Z,8.27
2019-02-06T12:29:12.947Z,9.83
2019-02-06T12:31:47.035Z,8.67
2019-02-06T12:34:16.412Z,9.53
2019-02-06T12:36:50.269Z,16.70
2019-02-06T12:39:19.384Z,11.97
2019-02-06T12:41:48.550Z,16.97
2019-02-06T12:44:19.800Z,11.90
2019-02-06T12:46:48.911Z,21.27
2019-02-06T12:49:18.050Z,22.80
2019-02-06T12:51:52.301Z,21.53
2019-02-06T12:54:21.032Z,20.00
2019-02-06T12:56:53.261Z,21.30
2019-02-06T12:59:44.958Z,15.70
2019-02-06T13:02:17.662Z,21.67
2019-02-06T13:04:46.960Z,21.10
2019-02-06T13:07:16.419Z,24.10
2019-02-06T13:09:46.022Z,20.53
2019-02-06T13:12:17.053Z,20.80
2019-02-06T13:14:48.978Z,19.70
2019-02-06T13:17:18.687Z,21.63
2019-02-06T13:19:47.857Z,17.70
2019-02-06T13:22:19.459Z,23.37
2019-02-06T13:24:50.675Z,21.33
2019-02-06T13:27:19.771Z,23.87
2019-02-06T13:29:49.430Z,36.50
2019-02-06T13:32:23.712Z,16.53
2019-02-06T13:34:54.065Z,28.50
2019-02-06T13:37:24.024Z,24.30
2019-02-06T13:39:54.205Z,15.47
2019-02-06T13:42:24.690Z,20.40
2019-02-06T13:44:53.984Z,28.17
2019-02-06T13:47:23.131Z,24.03
2019-02-06T13:49:52.446Z,26.43
2019-02-06T13:52:25.286Z,27.63
2019-02-06T13:54:57.265Z,22.33
2019-02-06T13:57:33.741Z,22.00
2019-02-06T14:00:01.305Z,25.23
2019-02-06T14:02:34.448Z,29.30
2019-02-06T14:05:04.983Z,33.40
2019-02-06T14:07:35.015Z,25.13
2019-02-06T14:10:04.637Z,25.60
2019-02-06T14:12:35.288Z,32.30
2019-02-06T14:15:05.192Z,34.93
2019-02-06T14:17:39.474Z,35.70
2019-02-06T14:20:13.068Z,39.90
2019-02-06T14:22:42.410Z,37.30
2019-02-06T14:25:34.905Z,37.57
2019-02-06T14:28:24.807Z,26.63
2019-02-06T14:31:37.279Z,33.67
2019-02-06T14:34:56.412Z,49.97
2019-02-06T14:38:02.511Z,32.37
2019-02-06T14:41:14.677Z,30.73
2019-02-06T14:44:34.491Z,34.70
2019-02-06T14:47:15.261Z,35.83
2019-02-06T14:50:15.023Z,31.10
2019-02-06T14:53:39.921Z,28.23
2019-02-06T14:56:36.265Z,34.00
2019-02-06T14:59:38.145Z,34.57
2019-02-06T15:02:50.466Z,26.97
2019-02-06T15:06:05.293Z,32.03
2019-02-06T15:09:11.428Z,30.00
2019-02-06T15:12:04.277Z,25.50
2019-02-06T15:14:50.819Z,26.83
2019-02-06T15:17:43.397Z,25.10
2019-02-06T15:21:21.510Z,31.03
2019-02-06T15:24:45.198Z,27.67
2019-02-06T15:27:43.213Z,31.47
2019-02-06T15:30:52.402Z,28.03
2019-02-06T15:33:41.834Z,24.60
2019-02-06T15:36:25.401Z,25.60
2019-02-06T15:39:19.573Z,25.83
2019-02-06T15:42:28.602Z,25.63
2019-02-06T15:45:16.617Z,23.50
2019-02-06T15:47:57.213Z,33.67
2019-02-06T15:51:22.221Z,27.10
2019-02-06T15:54:33.489Z,19.67
2019-02-06T15:57:52.909Z,26.80
2019-02-06T16:01:15.149Z,23.57
2019-02-06T16:04:23.460Z,31.03
2019-02-06T16:07:24.838Z,24.50
2019-02-06T16:10:44.087Z,22.70
2019-02-06T16:13:50.704Z,23.40
2019-02-06T16:17:01.517Z,21.93
2019-02-06T16:20:15.590Z,24.30
2019-02-06T16:23:20.259Z,25.23
2019-02-06T16:26:40.150Z,26.47
2019-02-06T16:29:38.598Z,26.63
2019-02-06T16:32:22.840Z,23.07
2019-02-06T16:35:20.470Z,28.80
2019-02-06T16:38:32.651Z,21.97
2019-02-06T16:41:53.871Z,23.97
2019-02-06T16:44:44.249Z,24.40
2019-02-06T16:47:57.141Z,24.43
2019-02-06T16:50:39.851Z,24.03
2019-02-06T16:54:09.810Z,23.40
2019-02-06T17:00:49.841Z,25.83
2019-02-06T17:03:45.137Z,20.33
2019-02-06T17:06:24.546Z,16.77
2019-02-06T17:09:24.502Z,25.33
2019-02-06T17:12:32.690Z,22.53
2019-02-06T17:16:00.880Z,23.03
2019-02-06T17:19:11.076Z,20.73
2019-02-06T17:22:14.196Z,15.33
2019-02-06T17:25:31.008Z,20.83
2019-02-06T17:28:47.348Z,19.93
2019-02-06T17:31:47.887Z,14.30
2019-02-06T17:34:31.047Z,16.97
2019-02-06T17:37:25.014Z,19.87
2019-02-06T17:40:33.554Z,19.70
2019-02-06T17:43:42.241Z,16.93
2019-02-06T17:46:31.151Z,18.60
2019-02-06T17:49:27.608Z,20.53
2019-02-06T17:52:18.517Z,20.53
2019-02-06T17:55:24.564Z,15.97
2019-02-06T17:58:02.289Z,20.30
2019-02-06T18:01:02.448Z,20.53
2019-02-06T18:03:37.395Z,24.20
2019-02-06T18:06:11.712Z,21.33
2019-02-06T18:08:40.889Z,20.17
2019-02-06T18:11:10.217Z,15.43
2019-02-06T18:13:39.352Z,18.73
2019-02-06T18:16:21.099Z,16.53
2019-02-06T18:18:47.135Z,22.93
2019-02-06T18:21:18.130Z,24.80
2019-02-06T18:23:47.206Z,18.07
2019-02-06T18:26:16.334Z,24.17
2019-02-06T18:28:47.351Z,23.47
2019-02-06T18:31:16.588Z,20.73
2019-02-06T18:33:45.771Z,19.77
2019-02-06T18:36:14.935Z,33.60
2019-02-06T18:38:46.605Z,37.00
2019-02-06T18:41:14.940Z,42.63
2019-02-06T18:43:45.024Z,28.30
2019-02-06T18:46:17.500Z,32.67
2019-02-06T18:48:48.312Z,39.87
2019-02-06T18:51:20.398Z,30.33
2019-02-06T18:53:51.980Z,39.87
2019-02-06T18:56:22.570Z,28.40
2019-02-06T18:58:56.985Z,20.57
2019-02-06T19:01:32.570Z,26.83
2019-02-06T19:04:01.720Z,25.10
2019-02-06T19:06:31.181Z,24.07
2019-02-06T19:09:00.374Z,27.97
2019-02-06T19:11:32.375Z,22.20
2019-02-06T19:14:01.740Z,23.40
2019-02-06T19:16:34.932Z,22.87
2019-02-06T19:19:04.646Z,24.33
2019-02-06T19:21:34.844Z,27.50
2019-02-06T19:24:04.028Z,25.30
2019-02-06T19:26:33.314Z,25.10
2019-02-06T19:29:06.622Z,35.03
2019-02-06T19:31:41.986Z,24.23
2019-02-06T19:34:13.310Z,23.73
2019-02-06T19:36:42.047Z,23.10
2019-02-06T19:39:11.302Z,26.77
2019-02-06T19:41:51.200Z,22.17
2019-02-06T19:44:22.517Z,28.47
2019-02-06T19:46:51.293Z,22.23
2019-02-06T19:49:20.440Z,23.20
2019-02-06T19:51:49.645Z,21.97
2019-02-06T19:54:18.968Z,19.90
2019-02-06T19:56:55.373Z,21.57
2019-02-06T19:59:25.243Z,21.67
2019-02-06T20:01:54.926Z,18.57
2019-02-06T20:04:25.287Z,28.37
2019-02-06T20:06:54.542Z,23.37
2019-02-06T20:09:30.417Z,25.17
2019-02-06T20:12:00.293Z,23.70
2019-02-06T20:14:29.422Z,22.00
2019-02-06T20:17:01.156Z,22.00
2019-02-06T20:19:30.326Z,21.37
2019-02-06T20:22:03.592Z,25.47
2019-02-06T20:24:35.225Z,24.43
2019-02-06T20:27:04.421Z,29.07
2019-02-06T20:29:33.553Z,26.70
2019-02-06T20:32:03.726Z,31.50
2019-02-06T20:34:34.005Z,30.70
2019-02-06T20:37:11.437Z,25.13
2019-02-06T20:39:40.601Z,79.93
2019-02-06T20:42:12.020Z,113.90
2019-02-06T20:44:43.647Z,61.07
2019-02-06T20:47:17.829Z,68.33
2019-02-06T20:49:47.006Z,46.27
2019-02-06T20:52:16.211Z,42.77
2019-02-06T20:54:51.932Z,48.40
2019-02-06T20:57:21.089Z,31.63
2019-02-06T20:59:50.277Z,34.80
2019-02-06T21:02:20.360Z,47.23
2019-02-06T21:04:49.468Z,42.07
2019-02-06T21:07:19.815Z,38.67
2019-02-06T21:09:52.104Z,31.03
2019-02-06T21:12:21.457Z,33.93
2019-02-06T21:14:50.634Z,26.00
2019-02-06T21:17:19.830Z,30.73
2019-02-06T21:19:49.947Z,32.10
2019-02-06T21:22:23.577Z,25.33
2019-02-06T21:24:52.771Z,20.47
2019-02-06T21:27:23.549Z,43.93
2019-02-06T21:29:54.303Z,56.40
2019-02-06T21:32:23.920Z,25.20
2019-02-06T21:34:54.771Z,19.00
2019-02-06T21:37:27.693Z,15.97
2019-02-06T21:39:56.974Z,23.73
2019-02-06T21:42:26.153Z,16.70
2019-02-06T21:44:55.931Z,16.73
2019-02-06T21:47:28.213Z,20.13
2019-02-06T21:49:57.347Z,23.80
2019-02-06T21:52:27.831Z,22.50
2019-02-06T21:55:16.544Z,27.37
2019-02-06T21:57:46.072Z,25.83
2019-02-06T22:00:44.695Z,27.77
2019-02-06T22:03:14.156Z,20.23
2019-02-06T22:05:45.785Z,23.90
2019-02-06T22:08:16.231Z,16.27
2019-02-06T22:10:45.321Z,19.90
2019-02-06T22:13:14.843Z,20.03
2019-02-06T22:15:44.048Z,16.73
2019-02-06T22:18:17.142Z,22.43
2019-02-06T22:20:46.306Z,21.63
2019-02-06T22:23:17.129Z,24.60
2019-02-06T22:25:46.314Z,23.33
2019-02-06T22:28:21.579Z,19.90
2019-02-06T22:30:46.413Z,24.30
2019-02-06T22:33:17.672Z,21.60
2019-02-06T22:35:46.456Z,19.93
2019-02-06T22:38:15.584Z,18.73
2019-02-06T22:40:49.811Z,20.40
2019-02-06T22:43:17.124Z,28.00
2019-02-06T22:45:48.544Z,22.60
2019-02-06T22:48:17.884Z,19.97
2019-02-06T22:50:49.846Z,17.20
2019-02-06T22:53:19.011Z,18.00
2019-02-06T22:55:50.226Z,21.60
2019-02-06T22:58:21.849Z,19.33
2019-02-06T23:01:18.427Z,16.63
2019-02-06T23:03:51.990Z,25.07
2019-02-06T23:06:21.437Z,20.33
2019-02-06T23:08:50.728Z,21.60
2019-02-06T23:11:19.816Z,17.27
2019-02-06T23:13:48.921Z,20.50
2019-02-06T23:16:22.329Z,20.73
2019-02-06T23:18:54.443Z,16.10
2019-02-06T23:21:23.608Z,13.57
2019-02-06T23:23:52.735Z,19.40
2019-02-06T23:26:23.323Z,27.03
2019-02-06T23:28:54.876Z,19.50
2019-02-06T23:31:23.968Z,22.03
2019-02-06T23:33:53.575Z,20.57
2019-02-06T23:36:23.049Z,20.63
2019-02-06T23:38:52.946Z,20.70
2019-02-06T23:41:25.010Z,19.33
2019-02-06T23:43:54.156Z,18.93
2019-02-06T23:46:23.291Z,24.13
2019-02-06T23:48:52.538Z,21.47
2019-02-06T23:51:21.667Z,19.87
2019-02-06T23:53:50.858Z,17.23
2019-02-06T23:56:21.758Z,19.20
2019-02-06T23:58:53.527Z,20.00
